KAXN

Chandler Field Airport

Alexandria, Minnesota, USA
METAR KAXN 222053Z AUTO 20012G20KT 10SM CLR 17/02 A3025 RMK AO2 SLP250 T01720017 56017
Observed Flight Rules
Apr-22 @ 20:53 UTC (an hour ago) Visual Flight Rules
Wind Visibility Clouds
200° at 12 knots
 Gusting to 20 knots
10 miles
  • Clear skies
Temperatures Readings
Current 17°C / 63°F
Dewpoint 2°C / 36°F
Humidity 37%
Altimeter 30.25" Hg
Pressure 1025 hPa
Elevation 433
METAR KAXN 222053Z AUTO 20012G20KT 10SM CLR 17/02 A3025 RMK AO2 SLP250 T01720017 56017
Observed Flight Rules
Apr-22 @ 20:53 UTC
(an hour ago)
VFR
Wind Visibility
200° at 12 knots
 Gusting to 20 knots
10 miles
Clouds
  • Clear skies
Temperature Dewpoint
17°C / 63°F 2°C / 36°F
Humidity Altimeter Pressure
37% 30.25" Hg 1025 hPa